Time;durP1;ratioP1;P1;durP2;ratioP2;P2;SDS_P1;SDS_P2;PMS_P1;PMS_P2;Temp;Humidity;BMP_temperature;BMP_pressure;BME280_temperature;BME280_humidity;BME280_pressure;Samples;Min_cycle;Max_cycle;Signal;HPM_P1;HPM_P2
2022/08/28 00:00:17;;;;;;;3.72;3.05;;;;;;;22.96;60.76;93193.59;4843295;29;20073;-83
2022/08/28 00:02:44;;;;;;;3.60;3.08;;;;;;;22.97;60.94;93188.81;4830454;29;20034;-84
2022/08/28 00:05:10;;;;;;;4.22;3.35;;;;;;;22.95;60.91;93186.63;4831033;29;20045;-84
2022/08/28 00:07:35;;;;;;;4.72;3.20;;;;;;;22.97;60.63;93186.81;4829936;29;20105;-84
2022/08/28 00:10:01;;;;;;;3.63;2.95;;;;;;;22.95;60.71;93186.63;4845657;29;20045;-84
2022/08/28 00:12:26;;;;;;;3.60;3.10;;;;;;;22.96;60.85;93190.84;4841212;29;20064;-84
2022/08/28 00:14:52;;;;;;;3.60;2.70;;;;;;;22.96;60.90;93192.88;4842509;29;20067;-83
2022/08/28 00:17:17;;;;;;;3.53;2.95;;;;;;;22.97;60.76;93191.59;4804024;29;20055;-84
2022/08/28 00:19:43;;;;;;;3.42;2.65;;;;;;;22.96;60.84;93185.31;4804674;29;20042;-84
2022/08/28 00:22:08;;;;;;;3.03;2.72;;;;;;;22.95;60.94;93186.63;4805048;29;20054;-84
2022/08/28 00:24:33;;;;;;;3.85;2.88;;;;;;;22.96;61.03;93188.09;4805171;29;20043;-84
2022/08/28 00:29:43;;;;;;;3.42;2.95;;;;;;;22.96;60.92;93184.59;4834829;29;20426;-84
2022/08/28 00:32:08;;;;;;;2.88;2.53;;;;;;;22.96;61.07;93187.34;4836576;29;20047;-84
2022/08/28 00:34:34;;;;;;;4.07;3.33;;;;;;;22.94;60.83;93176.16;4821784;29;20410;-84
2022/08/28 00:37:00;;;;;;;3.20;2.80;;;;;;;22.95;60.82;93185.91;4837344;29;20061;-84
2022/08/28 00:39:25;;;;;;;4.35;3.28;;;;;;;22.95;60.60;93188.66;4821642;29;20049;-84
2022/08/28 00:41:51;;;;;;;3.45;2.63;;;;;;;22.94;60.72;93185.16;4855271;29;20094;-83
2022/08/28 00:44:19;;;;;;;3.08;2.78;;;;;;;22.94;60.58;93185.16;4825733;29;20111;-83
2022/08/28 00:46:46;;;;;;;4.57;2.60;;;;;;;22.94;61.00;93184.44;4830390;29;20050;-84
2022/08/28 00:49:11;;;;;;;4.18;3.03;;;;;;;22.94;60.77;93190.69;4840450;29;20046;-84
2022/08/28 00:54:21;;;;;;;3.00;2.40;;;;;;;22.94;60.74;93178.91;4824686;29;20134;-84
2022/08/28 00:56:46;;;;;;;3.20;2.55;;;;;;;22.94;60.91;93187.19;4809379;29;20145;-85
2022/08/28 00:59:14;;;;;;;2.63;2.33;;;;;;;22.94;60.89;93179.66;4808696;29;20051;-84
2022/08/28 01:01:39;;;;;;;3.08;2.78;;;;;;;22.92;60.78;93187.72;4824073;29;20549;-84
2022/08/28 01:04:05;;;;;;;3.08;2.70;;;;;;;22.93;60.78;93186.44;4809976;29;20045;-84
2022/08/28 01:06:32;;;;;;;3.55;3.25;;;;;;;22.93;60.72;93178.19;4832955;29;20553;-83
2022/08/28 01:08:58;;;;;;;3.03;2.70;;;;;;;22.93;60.65;93189.19;4824059;29;20041;-84
2022/08/28 01:11:23;;;;;;;4.35;2.90;;;;;;;22.94;60.89;93184.44;4855909;29;20537;-83
2022/08/28 01:13:49;;;;;;;2.97;2.67;;;;;;;22.93;61.01;93189.19;4825853;29;20042;-84
2022/08/28 01:16:15;;;;;;;4.10;3.50;;;;;;;22.93;60.56;93189.19;4822188;29;20516;-84
2022/08/28 01:18:41;;;;;;;3.35;2.75;;;;;;;22.95;60.78;93180.38;4815121;29;20047;-85
2022/08/28 01:21:11;;;;;;;2.50;2.28;;;;;;;22.92;60.75;93184.22;4834414;29;20824;-84
2022/08/28 01:23:47;;;;;;;3.13;2.50;;;;;;;22.90;60.73;93174.50;4839048;29;20117;-84
2022/08/28 01:26:12;;;;;;;2.83;2.47;;;;;;;22.93;60.44;93174.69;4810438;29;20049;-84
2022/08/28 01:28:38;;;;;;;2.92;2.50;;;;;;;22.92;60.69;93184.97;4813567;29;20042;-83
2022/08/28 01:31:03;;;;;;;3.38;2.70;;;;;;;22.90;60.61;93188.28;4789119;29;20050;-87
2022/08/28 01:33:29;;;;;;;3.72;2.90;;;;;;;22.91;60.67;93175.22;4805031;29;20046;-83
2022/08/28 01:35:54;;;;;;;3.72;2.60;;;;;;;22.90;60.75;93180.00;4819931;29;20107;-84
2022/08/28 01:38:20;;;;;;;2.90;2.55;;;;;;;22.91;60.70;93186.25;4818272;29;20068;-83
2022/08/28 01:40:46;;;;;;;3.38;2.80;;;;;;;22.92;60.53;93175.97;4789640;29;20506;-84
2022/08/28 01:43:16;;;;;;;3.22;2.50;;;;;;;22.90;60.55;93171.72;4805176;29;20055;-84
2022/08/28 01:45:43;;;;;;;3.10;2.45;;;;;;;22.92;60.51;93175.97;4821746;29;20046;-88
2022/08/28 01:48:08;;;;;;;2.83;2.45;;;;;;;22.90;60.75;93176.50;4805908;29;20046;-84
2022/08/28 01:50:34;;;;;;;2.83;2.53;;;;;;;22.91;60.79;93169.72;4806985;29;20050;-84
2022/08/28 01:53:00;;;;;;;3.00;2.50;;;;;;;22.89;60.48;93172.28;4802628;29;20447;-84
2022/08/28 01:55:26;;;;;;;2.65;2.30;;;;;;;22.92;60.59;93176.69;4804293;29;20051;-83
2022/08/28 01:57:52;;;;;;;2.50;2.28;;;;;;;22.90;60.57;93168.25;4804169;29;20068;-84
2022/08/28 02:00:19;;;;;;;2.53;2.30;;;;;;;22.89;60.50;93184.03;4803668;29;20059;-84
2022/08/28 02:02:47;;;;;;;3.15;2.42;;;;;;;22.91;60.56;93180.75;4803763;29;20122;-84
2022/08/28 02:05:12;;;;;;;3.20;2.45;;;;;;;22.88;60.77;93171.53;4783491;29;20076;-84
2022/08/28 02:07:38;;;;;;;2.58;2.25;;;;;;;22.92;60.61;93173.94;4799575;29;20047;-84
2022/08/28 02:10:05;;;;;;;2.50;2.30;;;;;;;22.90;60.58;93168.97;4799115;29;20044;-84
2022/08/28 02:12:31;;;;;;;4.28;3.15;;;;;;;22.88;60.38;93174.28;4785037;29;20043;-84
2022/08/28 02:14:56;;;;;;;2.60;2.40;;;;;;;22.89;60.54;93167.50;4784418;30;20515;-84
2022/08/28 02:17:22;;;;;;;2.40;2.15;;;;;;;22.90;60.33;93171.00;4798481;29;20054;-84
2022/08/28 02:19:47;;;;;;;2.95;2.63;;;;;;;22.86;60.67;93171.34;4823251;29;20034;-84
2022/08/28 02:22:12;;;;;;;2.63;2.10;;;;;;;22.89;60.55;93177.78;4839971;29;20046;-84
2022/08/28 02:24:38;;;;;;;2.72;2.13;;;;;;;22.87;60.78;93172.09;4825506;29;20030;-84
2022/08/28 02:27:04;;;;;;;2.90;2.60;;;;;;;22.88;60.45;93160.50;4840509;29;20045;-84
2022/08/28 02:29:29;;;;;;;3.05;2.53;;;;;;;22.89;60.52;93172.28;4811153;29;20051;-84
2022/08/28 02:31:55;;;;;;;2.20;2.00;;;;;;;22.87;60.47;93170.06;4804763;29;20495;-84
2022/08/28 02:34:20;;;;;;;2.88;2.53;;;;;;;22.88;60.59;93176.31;4820622;29;20046;-85
2022/08/28 02:36:46;;;;;;;3.17;2.60;;;;;;;22.87;60.65;93172.09;4804810;29;20422;-86
2022/08/28 02:39:11;;;;;;;2.67;2.38;;;;;;;22.86;60.37;93176.84;4819939;29;20054;-84
2022/08/28 02:41:38;;;;;;;3.55;2.45;;;;;;;22.88;60.46;93170.81;4820469;29;20042;-84
2022/08/28 02:44:03;;;;;;;2.53;2.03;;;;;;;22.88;60.61;93177.06;4852465;29;20098;-84
2022/08/28 02:46:28;;;;;;;3.15;2.47;;;;;;;22.89;60.54;93181.28;4855375;29;20436;-84
2022/08/28 02:48:55;;;;;;;2.30;2.10;;;;;;;22.88;60.47;93176.31;4824674;29;20383;-84
2022/08/28 02:51:21;;;;;;;2.40;2.20;;;;;;;22.86;60.35;93173.38;4824891;29;20130;-84
2022/08/28 02:53:46;;;;;;;2.83;2.53;;;;;;;22.88;60.46;93170.81;4831260;29;20042;-85
2022/08/28 02:56:12;;;;;;;2.85;2.55;;;;;;;22.85;60.60;93172.63;4823764;29;20087;-86
2022/08/28 02:58:38;;;;;;;2.85;2.63;;;;;;;22.85;60.22;93164.34;4824064;29;20042;-86
2022/08/28 03:01:05;;;;;;;3.17;2.28;;;;;;;22.85;60.51;93178.13;4822247;29;20042;-86
2022/08/28 03:03:31;;;;;;;2.70;1.90;;;;;;;22.88;60.28;93176.31;4822159;29;20071;-86
2022/08/28 03:06:00;;;;;;;3.53;2.63;;;;;;;22.86;60.47;93176.13;4833520;29;20042;-85
2022/08/28 03:08:25;;;;;;;3.03;2.40;;;;;;;22.87;60.43;93183.84;4840660;29;20038;-86
2022/08/28 03:10:50;;;;;;;2.53;2.28;;;;;;;22.85;60.55;93186.41;4825802;29;20425;-86
2022/08/28 03:13:16;;;;;;;2.97;2.33;;;;;;;22.87;60.46;93191.38;4840820;29;20042;-85
2022/08/28 03:15:44;;;;;;;2.70;2.10;;;;;;;22.87;60.37;93183.84;4842105;29;20534;-86
2022/08/28 03:18:10;;;;;;;3.47;2.50;;;;;;;22.88;60.53;93181.81;4827409;29;20049;-85
2022/08/28 03:20:36;;;;;;;2.08;1.88;;;;;;;22.85;60.64;93185.66;4841889;29;20042;-86
2022/08/28 03:25:45;;;;;;;3.83;2.08;;;;;;;22.84;60.55;93184.94;4841256;29;20041;-86
2022/08/28 03:28:11;;;;;;;3.35;2.47;;;;;;;22.85;60.47;93188.44;4839791;29;20045;-85
2022/08/28 03:30:36;;;;;;;2.78;2.45;;;;;;;22.85;60.45;93186.41;4825548;29;20041;-86
2022/08/28 03:33:02;;;;;;;2.30;2.10;;;;;;;22.86;60.61;93192.66;4811497;29;20125;-86
2022/08/28 03:35:27;;;;;;;2.22;1.83;;;;;;;22.88;60.49;93193.59;4825601;29;20562;-86
2022/08/28 03:37:53;;;;;;;2.15;1.63;;;;;;;22.86;60.34;93195.41;4811117;29;20046;-86
2022/08/28 03:40:19;;;;;;;3.00;2.05;;;;;;;22.84;60.60;93195.22;4825743;29;20108;-85
2022/08/28 03:42:44;;;;;;;2.60;2.30;;;;;;;22.86;60.64;93187.16;4823166;29;20077;-86
2022/08/28 03:45:10;;;;;;;3.33;2.78;;;;;;;22.84;60.55;93186.94;4810260;29;20075;-88
2022/08/28 03:47:36;;;;;;;2.97;2.35;;;;;;;22.84;60.50;93195.22;4827556;29;20070;-86
2022/08/28 03:50:02;;;;;;;2.40;1.98;;;;;;;22.83;60.44;93191.00;4827131;29;20041;-86
2022/08/28 03:52:28;;;;;;;2.78;2.25;;;;;;;22.84;60.40;93204.22;4806046;29;20042;-87
2022/08/28 03:54:53;;;;;;;3.15;2.75;;;;;;;22.84;60.48;93197.97;4820335;29;20039;-86
2022/08/28 03:57:20;;;;;;;2.85;2.42;;;;;;;22.84;60.35;93195.22;4806815;29;20511;-86
2022/08/28 03:59:46;;;;;;;2.90;2.28;;;;;;;22.85;60.51;93191.19;4806104;29;20039;-86
2022/08/28 04:02:12;;;;;;;2.03;1.83;;;;;;;22.83;60.54;93205.50;4793868;29;20069;-86
2022/08/28 04:04:38;;;;;;;2.97;2.35;;;;;;;22.82;60.67;93200.53;4810362;29;20046;-85
2022/08/28 04:07:03;;;;;;;2.88;2.47;;;;;;;22.84;60.46;93209.00;4809980;29;20039;-86
2022/08/28 04:09:28;;;;;;;3.22;2.40;;;;;;;22.84;60.49;93209.75;4794575;29;20432;-86
2022/08/28 04:11:54;;;;;;;2.90;2.30;;;;;;;22.83;60.67;93207.53;4809854;29;20403;-86
2022/08/28 04:14:20;;;;;;;2.40;2.20;;;;;;;22.84;60.61;93212.50;4811801;29;20038;-86
2022/08/28 04:16:48;;;;;;;2.78;2.50;;;;;;;22.84;60.58;93217.28;4823370;29;20130;-85
2022/08/28 04:19:13;;;;;;;2.75;2.40;;;;;;;22.84;60.55;93209.75;4810757;29;20589;-85
2022/08/28 04:21:39;;;;;;;2.88;2.58;;;;;;;22.83;60.62;93219.28;4823440;29;20050;-85
2022/08/28 04:24:05;;;;;;;2.45;2.22;;;;;;;22.83;60.50;93211.03;4809627;29;20046;-86
2022/08/28 04:26:35;;;;;;;4.22;3.17;;;;;;;22.83;60.54;93221.31;4810802;29;20052;-86
2022/08/28 04:29:00;;;;;;;4.93;3.08;;;;;;;22.84;60.33;93225.53;4809461;29;20611;-86
2022/08/28 04:31:27;;;;;;;3.38;3.08;;;;;;;22.82;60.70;93222.59;4810974;29;20050;-86
2022/08/28 04:33:52;;;;;;;2.72;2.50;;;;;;;22.83;60.76;93226.81;4813303;29;20046;-85
2022/08/28 04:36:18;;;;;;;3.05;2.70;;;;;;;22.81;60.45;93219.09;4811975;29;20042;-86
2022/08/28 04:38:44;;;;;;;2.65;2.30;;;;;;;22.81;60.73;93229.38;4797995;29;20042;-86
2022/08/28 04:41:11;;;;;;;3.20;2.90;;;;;;;22.82;60.48;93228.84;4793724;29;20400;-86
2022/08/28 04:43:36;;;;;;;3.30;2.72;;;;;;;22.82;60.32;93225.34;4809723;29;20462;-86
2022/08/28 04:46:03;;;;;;;2.47;2.22;;;;;;;22.81;60.79;93224.59;4809529;29;20049;-86
2022/08/28 04:48:29;;;;;;;3.30;2.50;;;;;;;22.82;60.68;93228.09;4795611;29;20050;-86
2022/08/28 04:50:54;;;;;;;2.78;2.35;;;;;;;22.80;60.72;93222.41;4810792;29;20042;-87
2022/08/28 04:53:20;;;;;;;3.13;2.47;;;;;;;22.81;60.70;93223.88;4794697;29;20046;-86
2022/08/28 04:55:49;;;;;;;4.95;3.15;;;;;;;22.82;60.55;93225.34;4810237;29;20054;-85
2022/08/28 04:58:15;;;;;;;3.88;3.40;;;;;;;22.80;60.71;93228.66;4811115;29;20042;-85
2022/08/28 05:00:42;;;;;;;2.63;2.40;;;;;;;22.82;60.30;93228.84;4810812;29;20109;-86
2022/08/28 05:03:10;;;;;;;4.00;3.08;;;;;;;22.81;60.54;93229.38;4811704;29;20092;-87
2022/08/28 05:05:40;;;;;;;2.92;2.63;;;;;;;22.81;60.60;93226.63;4827173;29;20141;-86
2022/08/28 05:08:06;;;;;;;3.03;2.53;;;;;;;22.81;60.61;93227.34;4794808;29;20476;-86
2022/08/28 05:10:31;;;;;;;2.60;2.30;;;;;;;22.82;60.38;93219.84;4825898;29;20053;-86
2022/08/28 05:12:57;;;;;;;3.55;3.00;;;;;;;22.83;60.56;93227.56;4794595;29;20049;-86
2022/08/28 05:15:22;;;;;;;3.85;2.63;;;;;;;22.81;60.54;93221.13;4809987;29;20051;-86
2022/08/28 05:17:48;;;;;;;3.08;2.72;;;;;;;22.80;60.82;93234.16;4824178;29;20096;-85
2022/08/28 05:20:14;;;;;;;3.13;2.83;;;;;;;22.82;60.60;93226.09;4810473;29;20042;-85
2022/08/28 05:22:39;;;;;;;3.33;2.65;;;;;;;22.80;60.86;93236.91;4792386;29;20490;-86
2022/08/28 05:25:05;;;;;;;3.25;2.80;;;;;;;22.79;60.71;93238.19;4807681;29;20395;-85
2022/08/28 05:27:30;;;;;;;5.03;2.83;;;;;;;22.80;60.69;93233.41;4824183;29;20464;-86
2022/08/28 05:29:56;;;;;;;3.60;2.85;;;;;;;22.79;60.83;93232.69;4791461;29;20046;-85
2022/08/28 05:32:21;;;;;;;2.95;2.33;;;;;;;22.80;60.82;93236.91;4809556;29;20050;-86
2022/08/28 05:34:46;;;;;;;3.55;2.90;;;;;;;22.82;60.48;93236.38;4826610;29;20346;-85
2022/08/28 05:37:12;;;;;;;3.13;2.50;;;;;;;22.81;60.56;93237.66;4826220;29;20054;-87
2022/08/28 05:39:38;;;;;;;4.13;2.90;;;;;;;22.81;60.74;93241.13;4827778;29;20041;-86
2022/08/28 05:42:04;;;;;;;2.90;2.60;;;;;;;22.79;60.57;93243.69;4830497;29;20137;-85
2022/08/28 05:44:29;;;;;;;5.38;2.90;;;;;;;22.78;60.45;93236.72;4809043;29;20069;-85
2022/08/28 05:46:55;;;;;;;3.03;2.50;;;;;;;22.78;60.43;93236.72;4821104;29;20510;-85
2022/08/28 05:49:20;;;;;;;3.55;2.95;;;;;;;22.81;60.71;93240.41;4807620;29;20050;-85
2022/08/28 05:51:46;;;;;;;3.08;2.33;;;;;;;22.78;60.46;93233.97;4822333;29;20039;-85
2022/08/28 05:54:14;;;;;;;3.50;2.75;;;;;;;22.80;60.64;93241.69;4823615;29;20444;-85
2022/08/28 05:56:40;;;;;;;3.13;2.55;;;;;;;22.81;60.79;93245.91;4831647;29;20121;-85
2022/08/28 05:59:07;;;;;;;3.13;2.80;;;;;;;22.79;60.59;93248.47;4812542;29;20042;-85
2022/08/28 06:01:35;;;;;;;2.65;2.40;;;;;;;22.80;60.36;93253.44;4805067;29;20133;-85
2022/08/28 06:04:08;;;;;;;3.38;2.45;;;;;;;22.78;60.50;93247.75;4804473;29;20046;-86
2022/08/28 06:06:33;;;;;;;3.20;2.90;;;;;;;22.79;60.63;93248.47;4822695;29;20120;-85
2022/08/28 06:09:02;;;;;;;2.10;1.90;;;;;;;22.80;60.59;93253.44;4823753;29;20043;-88
2022/08/28 06:11:28;;;;;;;2.67;2.25;;;;;;;22.80;60.53;93258.22;4824964;29;20049;-85
2022/08/28 06:13:54;;;;;;;3.10;2.58;;;;;;;22.79;60.72;93257.47;4842596;29;20046;-85
2022/08/28 06:16:19;;;;;;;3.60;2.30;;;;;;;22.79;60.66;93251.22;4840116;29;20108;-85
2022/08/28 06:18:45;;;;;;;2.65;2.30;;;;;;;22.79;60.56;93257.47;4839523;29;20391;-85
2022/08/28 06:21:11;;;;;;;2.67;2.17;;;;;;;22.77;60.55;93260.03;4827300;29;20034;-85
2022/08/28 06:23:36;;;;;;;2.67;2.40;;;;;;;22.78;60.58;93258.03;4858705;29;20586;-85
2022/08/28 06:26:03;;;;;;;2.40;2.00;;;;;;;22.77;60.67;93259.28;4841324;29;20559;-85
2022/08/28 06:28:29;;;;;;;2.65;2.45;;;;;;;22.78;60.58;93263.53;4826935;29;20050;-85
2022/08/28 06:30:54;;;;;;;2.90;2.25;;;;;;;22.78;60.64;93260.78;4817127;29;20038;-86
2022/08/28 06:33:20;;;;;;;3.88;2.65;;;;;;;22.78;60.72;93261.53;4821901;29;20058;-85
2022/08/28 06:35:51;;;;;;;3.03;2.30;;;;;;;22.77;60.50;93264.78;4838451;29;20046;-85
2022/08/28 06:38:16;;;;;;;3.10;2.40;;;;;;;22.79;60.39;93262.25;4838142;29;20043;-85
2022/08/28 06:40:47;;;;;;;2.92;2.42;;;;;;;22.78;60.56;93263.53;4827510;29;20038;-85
2022/08/28 06:43:14;;;;;;;2.53;2.30;;;;;;;22.79;60.87;93260.25;4824042;29;20034;-86
2022/08/28 06:45:41;;;;;;;2.42;2.10;;;;;;;22.79;60.58;93257.47;4810782;29;20045;-85
2022/08/28 06:48:07;;;;;;;2.70;2.03;;;;;;;22.79;60.50;93256.75;4824818;29;20207;-85
2022/08/28 06:50:33;;;;;;;2.20;1.75;;;;;;;22.80;60.56;93266.50;4826534;29;20037;-85
2022/08/28 06:53:00;;;;;;;2.47;2.28;;;;;;;22.79;60.46;93267.75;4824688;29;20034;-86
2022/08/28 06:55:25;;;;;;;2.20;2.00;;;;;;;22.79;60.66;93265.75;4851285;29;20128;-85
2022/08/28 06:57:51;;;;;;;2.95;2.47;;;;;;;22.79;60.60;93270.53;4829622;29;20030;-86
2022/08/28 07:00:16;;;;;;;3.45;2.08;;;;;;;22.79;60.38;93276.78;4858861;29;20054;-85
2022/08/28 07:02:42;;;;;;;2.65;2.25;;;;;;;22.78;60.79;93277.31;4841360;29;20590;-85
2022/08/28 07:05:08;;;;;;;2.67;2.05;;;;;;;22.82;60.58;93280.47;4840746;29;20042;-86
2022/08/28 07:07:33;;;;;;;2.80;2.10;;;;;;;22.82;60.64;93280.47;4813079;29;20141;-85
2022/08/28 07:09:59;;;;;;;1.83;1.60;;;;;;;22.82;60.67;93291.50;4838521;29;20065;-85
2022/08/28 07:12:24;;;;;;;2.97;1.70;;;;;;;22.81;60.55;93284.50;4838402;29;20035;-85
2022/08/28 07:14:50;;;;;;;2.42;1.80;;;;;;;22.81;60.42;93293.50;4840273;29;20038;-86
2022/08/28 07:17:16;;;;;;;2.08;1.88;;;;;;;22.81;60.62;93293.50;4849764;29;20042;-85
2022/08/28 07:19:42;;;;;;;2.00;1.80;;;;;;;22.81;60.48;93295.53;4829413;29;20495;-85
2022/08/28 07:22:07;;;;;;;3.47;2.13;;;;;;;22.80;60.57;93297.53;4819694;29;20043;-85
2022/08/28 07:24:32;;;;;;;1.90;1.65;;;;;;;22.81;60.62;93298.28;4804465;29;20051;-85
2022/08/28 07:26:59;;;;;;;2.28;1.83;;;;;;;22.81;60.38;93301.78;4818653;29;20043;-85
2022/08/28 07:29:24;;;;;;;2.25;1.92;;;;;;;22.81;60.51;93304.53;4818389;29;20127;-86
2022/08/28 07:31:51;;;;;;;2.35;2.03;;;;;;;22.81;60.51;93309.31;4819574;29;20043;-85
2022/08/28 07:34:19;;;;;;;2.78;1.75;;;;;;;22.82;60.38;93314.28;4820110;29;20245;-85
2022/08/28 07:36:45;;;;;;;2.17;1.88;;;;;;;22.81;60.20;93312.06;4820268;29;20535;-85
2022/08/28 07:39:11;;;;;;;2.22;2.03;;;;;;;22.81;60.63;93307.28;4822257;29;20050;-85
2022/08/28 07:41:39;;;;;;;2.47;2.10;;;;;;;22.83;60.43;93313.00;4832154;29;20099;-85
2022/08/28 07:46:56;;;;;;;2.25;1.60;;;;;;;22.82;60.48;93308.75;4836326;29;20535;-85
2022/08/28 07:49:22;;;;;;;2.15;1.65;;;;;;;22.85;60.45;93312.47;4838336;29;20102;-85
2022/08/28 07:51:47;;;;;;;1.90;1.77;;;;;;;22.83;60.49;93312.25;4821562;29;20047;-85
2022/08/28 07:54:16;;;;;;;2.30;1.75;;;;;;;22.83;60.50;93309.50;4821460;29;20494;-85
2022/08/28 07:56:41;;;;;;;2.05;1.70;;;;;;;22.84;60.50;93316.50;4854397;29;20034;-85
2022/08/28 07:59:07;;;;;;;2.70;1.90;;;;;;;22.81;60.45;93310.03;4853947;29;20038;-85
2022/08/28 08:01:39;;;;;;;2.08;1.40;;;;;;;22.83;60.40;93321.28;4824120;29;20061;-85
2022/08/28 08:04:06;;;;;;;2.25;1.98;;;;;;;22.83;60.53;93317.78;4839804;29;20038;-86
2022/08/28 08:06:31;;;;;;;2.25;1.70;;;;;;;22.83;60.31;93321.28;4840706;29;20046;-86
2022/08/28 08:08:57;;;;;;;2.28;1.48;;;;;;;22.83;60.56;93323.28;4842123;29;20046;-85
2022/08/28 08:11:22;;;;;;;2.17;1.65;;;;;;;22.84;60.21;93317.22;4828027;29;20045;-85
2022/08/28 08:13:48;;;;;;;1.70;1.60;;;;;;;22.83;60.39;93326.78;4829050;29;20045;-86
2022/08/28 08:16:18;;;;;;;2.28;1.52;;;;;;;22.85;60.35;93329.00;4844971;29;20042;-85
2022/08/28 08:18:43;;;;;;;2.00;1.55;;;;;;;22.85;60.28;93326.97;4845760;29;20044;-85
2022/08/28 08:21:10;;;;;;;2.38;1.67;;;;;;;22.84;60.30;93331.00;4826207;29;20042;-85
2022/08/28 08:23:37;;;;;;;2.05;1.55;;;;;;;22.84;60.30;93324.75;4809132;29;20042;-85
2022/08/28 08:26:05;;;;;;;1.45;1.30;;;;;;;22.86;60.46;93324.97;4825102;29;20054;-86
2022/08/28 08:28:31;;;;;;;2.30;1.88;;;;;;;22.84;60.31;93333.78;4811042;29;20046;-85
2022/08/28 08:31:07;;;;;;;1.52;1.40;;;;;;;22.83;60.44;93331.56;4826922;29;20128;-85
2022/08/28 08:33:33;;;;;;;2.13;1.65;;;;;;;22.85;60.54;93335.25;4812608;29;20043;-85
2022/08/28 08:35:59;;;;;;;2.83;2.45;;;;;;;22.81;60.87;93326.59;4809773;29;20041;-85
2022/08/28 08:38:27;;;;;;;6.72;2.75;;;;;;;22.82;60.90;93335.59;4824969;29;20054;-86
2022/08/28 08:40:52;;;;;;;4.07;2.40;;;;;;;22.82;60.99;93341.09;4833396;29;20062;-85
2022/08/28 08:43:18;;;;;;;8.18;3.25;;;;;;;22.79;60.78;93345.69;4805939;29;20047;-85
2022/08/28 08:45:43;;;;;;;4.85;3.17;;;;;;;22.82;61.13;93347.34;4821496;29;20079;-85
2022/08/28 08:48:12;;;;;;;7.13;3.65;;;;;;;22.83;61.21;93348.09;4822751;29;20042;-85
2022/08/28 08:50:38;;;;;;;3.22;2.85;;;;;;;22.81;61.17;93343.13;4822178;29;20038;-84
2022/08/28 08:53:22;;;;;;;3.13;2.30;;;;;;;22.81;60.74;93353.41;4823715;29;20054;-85
2022/08/28 08:55:49;;;;;;;4.03;3.05;;;;;;;22.83;60.98;93350.84;4827047;29;20102;-85
2022/08/28 08:58:22;;;;;;;3.08;2.72;;;;;;;22.83;60.89;93348.09;4808200;29;20053;-85
2022/08/28 09:00:54;;;;;;;3.88;3.05;;;;;;;22.83;60.86;93356.38;4815770;29;20052;-84
2022/08/28 09:03:26;;;;;;;5.80;3.22;;;;;;;22.86;60.99;93361.53;4846539;29;20034;-85
2022/08/28 09:06:01;;;;;;;4.22;3.22;;;;;;;22.83;60.99;93359.84;4833806;29;20018;-84
2022/08/28 09:08:31;;;;;;;4.28;3.78;;;;;;;22.84;61.12;93355.81;4822217;29;20099;-85
2022/08/28 09:11:21;;;;;;;5.18;3.78;;;;;;;22.84;61.15;93355.09;4810691;29;20043;-85
2022/08/28 09:13:53;;;;;;;4.15;3.17;;;;;;;22.83;61.30;93359.84;4806331;29;20399;-85
2022/08/28 09:16:28;;;;;;;4.18;2.55;;;;;;;22.86;61.09;93363.56;4818579;29;20557;-85
2022/08/28 09:18:55;;;;;;;4.00;3.50;;;;;;;22.85;61.10;93357.31;4804282;29;20034;-85
2022/08/28 09:21:26;;;;;;;3.03;2.70;;;;;;;22.85;60.97;93364.84;4807404;29;20038;-85
2022/08/28 09:23:53;;;;;;;3.75;3.03;;;;;;;22.86;61.16;93361.53;4825605;29;20067;-85
2022/08/28 09:26:22;;;;;;;3.75;2.60;;;;;;;22.88;60.85;93372.03;4814147;29;20360;-85
2022/08/28 09:28:58;;;;;;;4.50;2.85;;;;;;;22.85;61.18;93365.56;4797205;29;20591;-85
2022/08/28 09:31:33;;;;;;;2.65;2.25;;;;;;;22.86;61.07;93369.81;4803518;29;20050;-85
2022/08/28 09:34:22;;;;;;;2.90;1.92;;;;;;;22.85;61.12;93365.56;4819373;29;20042;-85
2022/08/28 09:36:48;;;;;;;2.50;2.13;;;;;;;22.89;60.93;93363.22;4818033;29;20137;-86
2022/08/28 09:39:19;;;;;;;2.60;2.05;;;;;;;22.87;60.84;93357.50;4804002;29;20046;-85
2022/08/28 09:44:47;;;;;;;2.45;2.03;;;;;;;22.84;61.06;93366.84;4828051;29;20148;-86
2022/08/28 09:47:35;;;;;;;2.50;1.90;;;;;;;22.85;61.06;93362.06;4825113;29;20034;-85
2022/08/28 09:50:19;;;;;;;2.97;2.05;;;;;;;22.86;60.86;93364.28;4839226;29;20050;-86
2022/08/28 09:52:45;;;;;;;2.10;1.88;;;;;;;22.87;60.73;93370.53;4839520;29;20045;-85
2022/08/28 09:55:14;;;;;;;2.92;2.10;;;;;;;22.86;60.80;93358.78;4837824;29;20066;-85
2022/08/28 09:57:39;;;;;;;2.70;1.92;;;;;;;22.86;60.61;93364.28;4825376;29;20520;-86
2022/08/28 10:00:05;;;;;;;2.40;1.77;;;;;;;22.87;60.73;93359.53;4843201;29;20061;-85
2022/08/28 10:02:57;;;;;;;2.35;1.75;;;;;;;22.86;60.88;93358.03;4844262;29;20140;-85
2022/08/28 10:05:41;;;;;;;1.85;1.63;;;;;;;22.85;60.84;93362.81;4829395;29;20132;-85
2022/08/28 10:08:21;;;;;;;3.35;1.95;;;;;;;22.87;60.96;93368.53;4820028;29;20046;-85
2022/08/28 10:10:50;;;;;;;2.10;1.60;;;;;;;22.88;61.04;93377.53;4829275;29;20112;-85
2022/08/28 10:13:22;;;;;;;2.28;2.08;;;;;;;22.88;60.79;93374.78;4824968;29;20050;-85
2022/08/28 10:16:13;;;;;;;1.98;1.55;;;;;;;22.86;60.90;93377.34;4844019;29;20385;-86
2022/08/28 10:18:53;;;;;;;1.92;1.60;;;;;;;22.86;60.85;93371.81;4840677;29;20410;-86
2022/08/28 10:21:46;;;;;;;2.03;1.73;;;;;;;22.86;60.90;93363.56;4854132;29;20033;-85
2022/08/28 10:24:12;;;;;;;1.67;1.52;;;;;;;22.87;60.78;93381.56;4857866;29;20549;-86
2022/08/28 10:26:51;;;;;;;1.55;1.35;;;;;;;22.86;60.90;93375.31;4861072;29;20029;-85
2022/08/28 10:29:39;;;;;;;1.77;1.42;;;;;;;22.85;60.83;93376.59;4857005;29;20068;-86
2022/08/28 10:32:18;;;;;;;2.60;1.85;;;;;;;22.86;60.91;93377.34;4849575;29;20042;-85
2022/08/28 10:34:56;;;;;;;1.85;1.50;;;;;;;22.87;61.01;93385.06;4823452;29;20046;-86
2022/08/28 10:37:34;;;;;;;2.13;1.67;;;;;;;22.86;60.91;93386.34;4853225;29;20128;-85
2022/08/28 10:40:03;;;;;;;2.70;1.73;;;;;;;22.88;61.00;93383.78;4852605;29;20076;-85
2022/08/28 10:42:32;;;;;;;3.45;1.77;;;;;;;22.88;61.08;93388.56;4854880;29;20410;-91
2022/08/28 10:45:03;;;;;;;2.25;1.83;;;;;;;22.87;61.07;93384.31;4826863;29;20041;-85
2022/08/28 10:47:28;;;;;;;2.30;1.55;;;;;;;22.86;61.02;93386.34;4836756;29;20030;-86
2022/08/28 10:50:00;;;;;;;2.13;1.58;;;;;;;22.88;61.09;93377.53;4853151;29;20046;-87
2022/08/28 10:52:29;;;;;;;1.52;1.33;;;;;;;22.87;60.91;93385.06;4839961;29;20034;-89
2022/08/28 10:55:01;;;;;;;2.63;1.55;;;;;;;22.85;61.08;93384.88;4825163;29;20402;-87
2022/08/28 10:57:31;;;;;;;2.10;1.85;;;;;;;22.86;61.14;93385.59;4823169;29;20066;-88
2022/08/28 10:59:58;;;;;;;2.00;1.80;;;;;;;22.85;61.31;93390.38;4838530;29;20038;-92
2022/08/28 11:02:23;;;;;;;3.10;1.80;;;;;;;22.84;61.28;93388.91;4839553;29;20046;-85
2022/08/28 11:04:54;;;;;;;2.15;1.80;;;;;;;22.85;61.08;93386.88;4840954;29;20066;-85
2022/08/28 11:07:35;;;;;;;1.92;1.67;;;;;;;22.85;61.19;93395.16;4822600;29;20053;-88
2022/08/28 11:10:20;;;;;;;1.83;1.60;;;;;;;22.85;61.12;93403.41;4836909;29;20049;-87
2022/08/28 11:12:46;;;;;;;2.05;1.38;;;;;;;22.88;61.19;93396.81;4852749;29;20087;-90
2022/08/28 11:15:36;;;;;;;1.60;1.50;;;;;;;22.83;61.11;93398.44;4836412;29;20042;-86
2022/08/28 11:18:08;;;;;;;2.42;1.70;;;;;;;22.85;61.23;93392.41;4837184;29;20741;-87
2022/08/28 11:20:33;;;;;;;1.65;1.33;;;;;;;22.85;61.18;93401.41;4845666;29;20042;-85
2022/08/28 11:23:18;;;;;;;1.58;1.30;;;;;;;22.82;61.19;93394.22;4859144;29;20049;-88
2022/08/28 11:25:50;;;;;;;1.77;1.50;;;;;;;22.85;61.08;93409.66;4822841;29;20087;-86
2022/08/28 11:28:24;;;;;;;1.95;1.75;;;;;;;22.85;61.24;93406.19;4821429;29;20064;-88
2022/08/28 11:31:05;;;;;;;2.45;1.60;;;;;;;22.84;61.17;93407.44;4836850;29;20038;-88
2022/08/28 11:33:41;;;;;;;2.58;1.75;;;;;;;22.85;61.22;93411.69;4849611;29;20056;-90
2022/08/28 11:36:18;;;;;;;2.10;1.30;;;;;;;22.85;61.24;93415.19;4818981;29;20034;-86
2022/08/28 11:38:43;;;;;;;2.40;1.17;;;;;;;22.84;61.07;93419.22;4819937;29;20058;-85
2022/08/28 11:41:21;;;;;;;2.75;1.83;;;;;;;22.85;61.08;93422.72;4832502;29;20069;-86
2022/08/28 11:44:13;;;;;;;1.85;1.50;;;;;;;22.85;60.87;93417.19;4868025;29;20521;-85
2022/08/28 11:46:49;;;;;;;2.42;1.23;;;;;;;22.84;61.06;93424.00;4805019;29;20116;-86
2022/08/28 11:49:33;;;;;;;1.88;1.45;;;;;;;22.83;60.95;93419.75;4832491;29;20041;-88
2022/08/28 11:52:32;;;;;;;1.35;1.10;;;;;;;22.81;61.19;93423.06;4833380;29;20116;-86